Time;durP1;ratioP1;P1;durP2;ratioP2;P2;SDS_P1;SDS_P2;PMS_P1;PMS_P2;Temp;Humidity;BMP_temperature;BMP_pressure;BME280_temperature;BME280_humidity;BME280_pressure;Samples;Min_cycle;Max_cycle;Signal;HPM_P1;HPM_P2
2020/12/15 00:00:08;;;;;;;4.57;2.95;;;8.70;93.50;;;;;;2055984;28;20374;-80
2020/12/15 00:01:09;;;;;;;5.18;2.70;;;8.70;93.50;;;;;;2055450;28;20027;-80
2020/12/15 00:02:09;;;;;;;5.63;2.70;;;8.70;93.50;;;;;;2054352;28;20561;-80
2020/12/15 00:03:10;;;;;;;4.50;2.70;;;8.70;93.50;;;;;;2051625;28;20504;-81
2020/12/15 00:04:11;;;;;;;4.55;2.60;;;8.70;93.40;;;;;;2051215;28;20481;-81
2020/12/15 00:05:11;;;;;;;4.13;2.42;;;8.70;93.40;;;;;;2050504;28;20069;-81
2020/12/15 00:06:12;;;;;;;4.82;2.70;;;8.70;93.40;;;;;;2050568;28;20035;-81
2020/12/15 00:07:12;;;;;;;5.30;2.80;;;8.70;93.40;;;;;;2045946;29;20482;-81
2020/12/15 00:08:13;;;;;;;4.43;2.50;;;8.70;93.40;;;;;;2048507;29;20035;-81
2020/12/15 00:09:14;;;;;;;4.93;2.65;;;8.70;93.40;;;;;;2050220;28;20032;-81
2020/12/15 00:10:15;;;;;;;4.78;2.60;;;8.70;93.40;;;;;;2056354;28;20024;-80
2020/12/15 00:11:19;;;;;;;4.00;2.50;;;8.70;93.40;;;;;;2056448;28;20027;-80
2020/12/15 00:12:19;;;;;;;5.05;2.85;;;8.60;93.40;;;;;;2056431;28;20125;-80
2020/12/15 00:13:20;;;;;;;4.10;2.50;;;8.60;93.40;;;;;;2056373;28;20831;-80
2020/12/15 00:14:20;;;;;;;4.70;2.90;;;8.60;93.40;;;;;;2052243;28;20067;-80
2020/12/15 00:15:21;;;;;;;4.95;2.95;;;8.60;93.40;;;;;;2052114;28;20031;-80
2020/12/15 00:16:22;;;;;;;5.25;2.92;;;8.60;93.40;;;;;;2052540;28;20054;-80
2020/12/15 00:17:22;;;;;;;4.85;2.50;;;8.60;93.40;;;;;;2050411;28;20027;-80
2020/12/15 00:18:23;;;;;;;4.65;2.88;;;8.60;93.30;;;;;;2052868;28;20031;-80
2020/12/15 00:19:24;;;;;;;3.65;2.33;;;8.60;93.30;;;;;;2055396;28;20089;-80
2020/12/15 00:20:25;;;;;;;5.13;2.78;;;8.60;93.30;;;;;;2055864;28;20510;-80
2020/12/15 00:21:26;;;;;;;4.20;2.67;;;8.60;93.30;;;;;;2055208;28;20129;-80
2020/12/15 00:22:27;;;;;;;5.07;2.50;;;8.60;93.30;;;;;;2051217;28;20034;-80
2020/12/15 00:23:27;;;;;;;3.97;2.58;;;8.60;93.30;;;;;;2056196;28;20122;-80
2020/12/15 00:24:28;;;;;;;4.47;2.40;;;8.60;93.30;;;;;;2050436;28;20486;-80
2020/12/15 00:25:29;;;;;;;4.72;2.53;;;8.60;93.30;;;;;;2055775;28;20438;-80
2020/12/15 00:26:29;;;;;;;4.82;3.00;;;8.60;93.30;;;;;;2053487;28;20038;-80
2020/12/15 00:27:30;;;;;;;4.35;2.20;;;8.60;93.30;;;;;;2054575;28;20133;-80
2020/12/15 00:28:31;;;;;;;4.57;2.50;;;8.60;93.30;;;;;;2056757;28;20039;-80
2020/12/15 00:29:31;;;;;;;4.82;2.65;;;8.60;93.30;;;;;;2051684;28;20036;-81
2020/12/15 00:30:32;;;;;;;4.25;2.80;;;8.60;93.30;;;;;;2049094;28;20101;-80
2020/12/15 00:31:35;;;;;;;4.47;2.78;;;8.60;93.30;;;;;;2045662;28;20098;-80
2020/12/15 00:32:35;;;;;;;4.15;2.80;;;8.60;93.30;;;;;;2039262;29;20038;-80
2020/12/15 00:33:36;;;;;;;3.95;2.63;;;8.60;93.30;;;;;;2045555;29;20505;-80
2020/12/15 00:34:37;;;;;;;4.28;2.78;;;8.60;93.30;;;;;;2039277;29;20130;-80
2020/12/15 00:35:38;;;;;;;5.15;2.97;;;8.60;93.30;;;;;;2032045;29;20024;-80
2020/12/15 00:36:39;;;;;;;5.43;3.50;;;8.60;93.30;;;;;;2043519;29;20039;-80
2020/12/15 00:37:39;;;;;;;5.10;4.03;;;8.60;93.30;;;;;;2051742;28;20354;-80
2020/12/15 00:38:40;;;;;;;5.78;4.38;;;8.60;93.30;;;;;;2049547;28;20521;-80
2020/12/15 00:39:40;;;;;;;6.55;4.38;;;8.60;93.20;;;;;;2049204;28;20066;-81
2020/12/15 00:40:41;;;;;;;5.43;4.18;;;8.60;93.20;;;;;;2042153;29;20039;-81
2020/12/15 00:41:48;;;;;;;5.93;4.10;;;8.60;93.20;;;;;;2048006;28;20100;-80
2020/12/15 00:42:49;;;;;;;5.50;4.35;;;8.60;93.20;;;;;;2052762;28;20043;-81
2020/12/15 00:43:49;;;;;;;6.25;4.72;;;8.60;93.20;;;;;;2051011;28;20027;-81
2020/12/15 00:44:50;;;;;;;5.35;4.43;;;8.60;93.20;;;;;;2058800;28;20121;-81
2020/12/15 00:45:51;;;;;;;5.07;4.10;;;8.60;93.20;;;;;;2050808;28;20038;-81
2020/12/15 00:46:51;;;;;;;5.97;4.80;;;8.60;93.20;;;;;;2053104;28;20058;-81
2020/12/15 00:47:52;;;;;;;5.60;4.35;;;8.60;93.20;;;;;;2056536;28;20523;-81
2020/12/15 00:48:53;;;;;;;4.85;4.10;;;8.60;93.20;;;;;;2053045;28;20027;-81
2020/12/15 00:49:53;;;;;;;5.82;4.05;;;8.60;93.20;;;;;;2050936;28;20024;-81
2020/12/15 00:50:54;;;;;;;5.15;3.58;;;8.60;93.20;;;;;;2052835;28;20019;-81
2020/12/15 00:51:54;;;;;;;5.10;3.78;;;8.60;93.20;;;;;;2053448;28;20056;-81
2020/12/15 00:52:55;;;;;;;5.07;3.63;;;8.60;93.40;;;;;;2047149;29;20027;-80
2020/12/15 00:53:56;;;;;;;4.90;3.53;;;8.60;93.20;;;;;;2046408;28;20125;-78
2020/12/15 00:54:56;;;;;;;4.90;3.33;;;8.60;93.20;;;;;;2055677;28;20516;-78
2020/12/15 00:55:57;;;;;;;4.65;3.00;;;8.60;93.20;;;;;;2051166;28;20031;-78
2020/12/15 00:56:58;;;;;;;4.78;3.40;;;8.60;93.20;;;;;;2054288;28;20481;-78
2020/12/15 00:57:58;;;;;;;4.82;3.08;;;8.60;93.20;;;;;;2050684;28;20509;-78
2020/12/15 00:58:59;;;;;;;5.28;3.17;;;8.60;93.20;;;;;;2051992;28;20445;-78
2020/12/15 01:00:00;;;;;;;5.03;3.00;;;8.60;93.20;;;;;;2053924;28;20485;-78
2020/12/15 01:01:00;;;;;;;5.05;3.03;;;8.60;93.20;;;;;;2051160;28;20401;-78
2020/12/15 01:02:03;;;;;;;4.10;2.90;;;8.60;93.20;;;;;;2052988;28;20478;-78
2020/12/15 01:03:04;;;;;;;4.10;2.80;;;8.60;93.20;;;;;;2049336;28;20035;-78
2020/12/15 01:04:05;;;;;;;4.20;2.50;;;8.60;93.20;;;;;;2051744;28;20432;-78
2020/12/15 01:05:06;;;;;;;3.75;2.58;;;8.60;93.20;;;;;;2052556;28;20150;-79
2020/12/15 01:06:09;;;;;;;3.35;2.28;;;8.70;93.20;;;;;;2055108;28;20038;-79
2020/12/15 01:07:09;;;;;;;4.07;2.45;;;8.60;93.20;;;;;;2052632;28;20032;-79
2020/12/15 01:08:10;;;;;;;4.28;2.50;;;8.60;93.20;;;;;;2052662;28;20046;-79
2020/12/15 01:09:11;;;;;;;4.72;2.67;;;8.60;93.20;;;;;;2049936;28;20498;-79
2020/12/15 01:10:12;;;;;;;4.93;2.50;;;8.60;93.20;;;;;;2048024;28;20067;-79
2020/12/15 01:11:12;;;;;;;4.40;2.60;;;8.70;93.20;;;;;;2050362;28;20486;-79
2020/12/15 01:12:13;;;;;;;4.03;2.50;;;8.70;93.20;;;;;;2054356;28;20113;-79
2020/12/15 01:13:14;;;;;;;4.13;2.25;;;8.70;93.20;;;;;;2054389;28;20473;-79
2020/12/15 01:14:14;;;;;;;4.57;2.60;;;8.70;93.20;;;;;;2048476;28;20031;-79
2020/12/15 01:15:15;;;;;;;4.20;2.20;;;8.70;93.20;;;;;;2052111;28;20556;-79
2020/12/15 01:16:15;;;;;;;4.72;2.60;;;8.70;93.20;;;;;;2054489;28;20049;-79
2020/12/15 01:17:16;;;;;;;3.80;2.20;;;8.70;93.20;;;;;;2050423;28;20065;-79
2020/12/15 01:18:17;;;;;;;3.53;2.30;;;8.70;93.20;;;;;;2048112;28;20028;-79
2020/12/15 01:19:17;;;;;;;3.90;2.10;;;8.70;93.20;;;;;;2054959;28;20448;-79
2020/12/15 01:20:18;;;;;;;3.72;2.13;;;8.70;93.20;;;;;;2053486;28;20034;-78
2020/12/15 01:21:31;;;;;;;3.55;2.35;;;8.70;93.20;;;;;;2051219;28;20023;-79
2020/12/15 01:22:31;;;;;;;4.40;2.33;;;8.70;93.20;;;;;;2048186;28;20039;-79
2020/12/15 01:23:32;;;;;;;4.20;2.30;;;8.70;93.20;;;;;;2052317;28;20121;-79
2020/12/15 01:24:33;;;;;;;4.35;2.30;;;8.70;93.20;;;;;;2053961;28;20077;-79
2020/12/15 01:25:34;;;;;;;3.95;2.60;;;8.70;93.20;;;;;;2053708;28;20035;-80
2020/12/15 01:26:35;;;;;;;4.50;2.45;;;8.70;93.20;;;;;;2057485;28;20039;-79
2020/12/15 01:27:35;;;;;;;3.88;2.40;;;8.70;93.20;;;;;;2057859;28;20050;-78
2020/12/15 01:28:36;;;;;;;4.90;2.38;;;8.70;93.20;;;;;;2058335;28;20860;-80
2020/12/15 01:29:36;;;;;;;4.65;2.47;;;8.70;93.20;;;;;;2052560;28;20383;-79
2020/12/15 01:30:37;;;;;;;4.53;2.45;;;8.70;93.20;;;;;;2050158;29;20028;-79
2020/12/15 01:31:37;;;;;;;4.15;2.33;;;8.70;93.20;;;;;;2048745;28;20497;-78
2020/12/15 01:32:38;;;;;;;4.50;2.15;;;8.70;93.20;;;;;;2056648;28;20528;-79
2020/12/15 01:33:39;;;;;;;5.55;2.63;;;8.70;93.20;;;;;;2055490;28;20109;-78
2020/12/15 01:34:40;;;;;;;4.32;2.33;;;8.70;93.20;;;;;;2049337;28;20482;-79
2020/12/15 01:35:40;;;;;;;3.15;1.95;;;8.70;93.20;;;;;;2055643;28;20034;-79
2020/12/15 01:36:41;;;;;;;3.72;2.35;;;8.70;93.20;;;;;;2046161;28;20561;-78
2020/12/15 01:37:42;;;;;;;4.78;2.40;;;8.70;93.20;;;;;;2049091;28;20512;-79
2020/12/15 01:38:42;;;;;;;4.22;2.13;;;8.70;93.20;;;;;;2049341;28;20410;-78
2020/12/15 01:39:43;;;;;;;4.30;2.58;;;8.70;93.20;;;;;;2054740;28;20170;-79
2020/12/15 01:40:50;;;;;;;3.58;2.30;;;8.70;93.20;;;;;;2056493;28;20039;-78
2020/12/15 01:41:51;;;;;;;3.60;2.47;;;8.70;93.50;;;;;;2052413;28;20121;-78
2020/12/15 01:42:52;;;;;;;3.78;2.17;;;8.70;93.20;;;;;;2054975;28;20050;-79
2020/12/15 01:43:57;;;;;;;3.60;2.35;;;8.70;93.20;;;;;;2046751;29;20074;-79
2020/12/15 01:44:57;;;;;;;4.18;2.30;;;8.70;93.20;;;;;;2045172;28;20536;-79
2020/12/15 01:45:59;;;;;;;4.55;2.30;;;8.70;93.20;;;;;;2047002;29;20032;-79
2020/12/15 01:47:00;;;;;;;4.03;2.10;;;8.70;93.30;;;;;;2048867;28;20027;-79
2020/12/15 01:48:01;;;;;;;3.38;2.10;;;8.70;93.30;;;;;;2055927;28;20061;-79
2020/12/15 01:49:02;;;;;;;3.80;2.45;;;8.70;93.30;;;;;;2053785;28;20117;-79
2020/12/15 01:50:03;;;;;;;4.13;2.25;;;8.70;93.20;;;;;;2052523;28;20023;-79
2020/12/15 01:51:03;;;;;;;3.40;2.25;;;8.70;93.30;;;;;;2055454;28;20474;-79
2020/12/15 01:52:04;;;;;;;3.47;2.22;;;8.70;93.30;;;;;;2047206;28;20498;-79
2020/12/15 01:53:09;;;;;;;4.30;2.30;;;8.70;93.20;;;;;;2052016;28;20031;-79
2020/12/15 01:54:10;;;;;;;4.30;2.40;;;8.70;93.30;;;;;;2052423;28;20026;-79
2020/12/15 01:55:15;;;;;;;3.67;2.40;;;8.70;93.30;;;;;;2054443;28;20481;-79
2020/12/15 01:56:15;;;;;;;3.47;2.13;;;8.70;93.50;;;;;;2053524;28;20063;-79
2020/12/15 01:57:16;;;;;;;3.83;2.35;;;8.70;93.30;;;;;;2056013;28;20525;-78
2020/12/15 01:58:17;;;;;;;4.30;2.50;;;8.70;93.30;;;;;;2034603;29;20035;-78
2020/12/15 01:59:18;;;;;;;3.88;2.38;;;8.70;93.30;;;;;;2041162;29;20159;-79
2020/12/15 02:00:19;;;;;;;4.63;2.70;;;8.70;93.30;;;;;;2052122;28;20090;-79
2020/12/15 02:01:21;;;;;;;5.85;2.50;;;8.70;93.30;;;;;;2044804;28;20047;-79
2020/12/15 02:02:22;;;;;;;3.60;2.13;;;8.70;93.30;;;;;;2056637;28;20035;-79
2020/12/15 02:03:23;;;;;;;3.83;2.15;;;8.70;93.30;;;;;;2051709;28;20418;-78
2020/12/15 02:04:23;;;;;;;3.63;2.20;;;8.70;93.30;;;;;;2045561;28;20038;-79
2020/12/15 02:05:24;;;;;;;3.75;2.33;;;8.70;93.30;;;;;;2051971;28;20054;-79
2020/12/15 02:06:24;;;;;;;4.47;2.50;;;8.70;93.30;;;;;;2054887;28;20116;-80
2020/12/15 02:07:26;;;;;;;4.82;2.53;;;8.70;93.30;;;;;;2047572;28;20490;-79
2020/12/15 02:08:27;;;;;;;3.70;2.47;;;8.70;93.30;;;;;;2047017;28;20514;-79
2020/12/15 02:09:28;;;;;;;3.75;2.28;;;8.60;93.30;;;;;;2053962;28;20116;-79
2020/12/15 02:10:29;;;;;;;4.70;2.72;;;8.60;93.20;;;;;;2052186;28;20557;-79
2020/12/15 02:11:29;;;;;;;5.00;2.70;;;8.60;93.30;;;;;;2049987;28;20106;-80
2020/12/15 02:12:30;;;;;;;6.25;3.10;;;8.60;93.20;;;;;;2054913;28;20063;-79
2020/12/15 02:13:31;;;;;;;5.03;2.58;;;8.60;93.30;;;;;;2052939;28;20051;-79
2020/12/15 02:14:32;;;;;;;5.85;2.67;;;8.60;93.30;;;;;;2043833;28;20512;-79
2020/12/15 02:15:32;;;;;;;4.78;2.80;;;8.60;93.30;;;;;;2047054;29;20043;-79
2020/12/15 02:16:33;;;;;;;4.85;2.83;;;8.60;93.30;;;;;;2044743;28;20572;-80
2020/12/15 02:17:34;;;;;;;4.70;2.58;;;8.60;93.30;;;;;;2054673;28;20023;-79
2020/12/15 02:18:35;;;;;;;4.07;2.58;;;8.60;93.40;;;;;;2045883;28;20047;-79
2020/12/15 02:19:36;;;;;;;4.88;2.85;;;8.60;93.40;;;;;;2046511;28;20047;-78
2020/12/15 02:20:39;;;;;;;4.63;2.95;;;8.60;93.40;;;;;;2051400;28;20039;-80
2020/12/15 02:21:50;;;;;;;4.53;2.50;;;8.60;93.40;;;;;;2043980;28;20040;-79
2020/12/15 02:22:50;;;;;;;4.82;2.90;;;8.60;93.40;;;;;;2045590;28;20019;-78
2020/12/15 02:23:51;;;;;;;4.55;2.78;;;8.60;93.40;;;;;;2053292;28;20047;-79
2020/12/15 02:24:51;;;;;;;4.60;2.60;;;8.50;93.40;;;;;;2054937;28;20130;-80
2020/12/15 02:25:52;;;;;;;4.47;2.60;;;8.60;93.40;;;;;;2042146;28;20039;-79
2020/12/15 02:26:53;;;;;;;3.58;2.30;;;8.60;93.40;;;;;;2047957;28;20122;-80
2020/12/15 02:27:54;;;;;;;5.05;2.88;;;8.60;93.40;;;;;;2049640;28;20413;-80
2020/12/15 02:28:55;;;;;;;5.63;2.78;;;8.60;93.40;;;;;;2048305;28;20315;-79
2020/12/15 02:29:55;;;;;;;4.13;2.50;;;8.60;93.40;;;;;;2052766;28;20169;-79
2020/12/15 02:30:56;;;;;;;4.50;2.85;;;8.60;93.40;;;;;;2046757;28;20027;-79
2020/12/15 02:31:57;;;;;;;4.07;2.67;;;8.60;93.40;;;;;;2045825;28;20059;-80
2020/12/15 02:32:57;;;;;;;4.78;2.53;;;8.60;93.40;;;;;;2049580;28;20042;-79
2020/12/15 02:33:58;;;;;;;4.10;2.50;;;8.60;93.40;;;;;;2044458;29;20376;-80
2020/12/15 02:34:58;;;;;;;5.28;2.30;;;8.60;93.50;;;;;;2054390;28;20031;-80
2020/12/15 02:35:59;;;;;;;3.75;2.33;;;8.50;93.40;;;;;;2049110;28;20074;-79
2020/12/15 02:37:09;;;;;;;4.20;2.50;;;8.50;93.40;;;;;;2049060;28;20055;-80
2020/12/15 02:38:10;;;;;;;3.85;2.30;;;8.60;93.50;;;;;;2050134;28;20026;-80
2020/12/15 02:39:15;;;;;;;4.38;2.60;;;8.60;93.50;;;;;;2052628;28;20113;-80
2020/12/15 02:40:16;;;;;;;4.32;2.47;;;8.50;93.40;;;;;;2055318;28;20481;-80
2020/12/15 02:41:17;;;;;;;4.05;2.50;;;8.60;93.40;;;;;;2055535;28;20031;-79
2020/12/15 02:42:17;;;;;;;3.92;2.53;;;8.60;93.50;;;;;;2054893;28;20082;-79
2020/12/15 02:43:18;;;;;;;3.28;2.22;;;8.60;93.40;;;;;;2055276;28;20027;-80
2020/12/15 02:44:19;;;;;;;4.53;2.60;;;8.60;93.50;;;;;;2054868;28;20062;-80
2020/12/15 02:45:19;;;;;;;3.67;2.42;;;8.60;93.50;;;;;;2051712;28;20417;-80
2020/12/15 02:46:20;;;;;;;4.03;2.38;;;8.60;93.50;;;;;;2048506;28;22521;-79
2020/12/15 02:47:21;;;;;;;3.72;2.47;;;8.60;93.50;;;;;;2048299;28;20070;-79
2020/12/15 02:48:21;;;;;;;4.05;2.55;;;8.60;93.50;;;;;;2055063;28;20564;-79
2020/12/15 02:49:22;;;;;;;3.88;2.50;;;8.60;93.50;;;;;;2053749;28;20082;-79
2020/12/15 02:50:25;;;;;;;4.93;2.70;;;8.60;93.50;;;;;;2053138;28;20019;-80
2020/12/15 02:51:26;;;;;;;3.33;2.40;;;8.60;93.50;;;;;;2055393;28;20045;-80
2020/12/15 02:52:27;;;;;;;4.00;2.45;;;8.70;93.50;;;;;;2057155;28;20030;-79
2020/12/15 02:53:27;;;;;;;3.92;2.50;;;8.60;93.40;;;;;;2056292;28;20031;-79
2020/12/15 02:54:28;;;;;;;3.85;2.58;;;8.60;93.40;;;;;;2047697;29;20031;-79
2020/12/15 02:55:28;;;;;;;5.32;2.70;;;8.60;93.40;;;;;;2052217;28;20054;-80
2020/12/15 02:56:29;;;;;;;3.42;2.40;;;8.60;93.40;;;;;;2051775;28;20035;-81
2020/12/15 02:57:29;;;;;;;3.65;2.28;;;8.60;93.40;;;;;;2055080;28;20027;-80
2020/12/15 02:58:30;;;;;;;3.67;2.33;;;8.60;93.40;;;;;;2049103;28;20035;-79
2020/12/15 02:59:31;;;;;;;5.00;2.72;;;8.60;93.40;;;;;;2054342;28;20515;-80
2020/12/15 03:00:31;;;;;;;4.93;2.80;;;8.60;93.40;;;;;;2047163;29;20031;-80
2020/12/15 03:01:38;;;;;;;4.05;2.55;;;8.60;93.40;;;;;;2056267;28;20400;-80
2020/12/15 03:02:39;;;;;;;4.38;2.40;;;8.60;93.50;;;;;;2056753;28;20035;-79
2020/12/15 03:03:40;;;;;;;3.95;2.25;;;8.60;93.50;;;;;;2056136;28;20111;-79
2020/12/15 03:04:40;;;;;;;3.45;2.20;;;8.60;93.50;;;;;;2055835;28;20497;-79
2020/12/15 03:05:41;;;;;;;4.75;2.60;;;8.60;93.50;;;;;;2057103;28;20031;-80
2020/12/15 03:06:42;;;;;;;3.63;2.35;;;8.60;93.50;;;;;;2054130;28;20039;-79
2020/12/15 03:07:42;;;;;;;4.07;2.30;;;8.60;93.50;;;;;;2056606;28;20072;-79
2020/12/15 03:08:43;;;;;;;3.40;2.40;;;8.60;93.50;;;;;;2055264;28;20030;-79
2020/12/15 03:09:44;;;;;;;4.00;2.22;;;8.60;93.50;;;;;;2055562;28;22739;-79
2020/12/15 03:10:44;;;;;;;3.85;2.60;;;8.60;93.50;;;;;;2049915;28;20031;-79
2020/12/15 03:11:45;;;;;;;4.22;2.40;;;8.60;93.50;;;;;;2050994;28;20402;-79
2020/12/15 03:12:45;;;;;;;3.90;2.60;;;8.70;93.50;;;;;;2050116;28;20034;-79
2020/12/15 03:13:46;;;;;;;4.47;2.78;;;8.60;93.50;;;;;;2050635;28;20371;-79
2020/12/15 03:14:48;;;;;;;3.15;2.17;;;8.60;93.50;;;;;;2045837;29;20024;-80
2020/12/15 03:15:49;;;;;;;4.63;2.92;;;8.70;93.50;;;;;;2052922;28;20034;-79
2020/12/15 03:16:49;;;;;;;4.00;2.60;;;8.70;93.50;;;;;;2053537;28;20039;-80
2020/12/15 03:17:50;;;;;;;4.25;2.70;;;8.70;93.60;;;;;;2048228;28;20019;-80
2020/12/15 03:18:51;;;;;;;4.55;2.70;;;8.70;93.60;;;;;;2047243;28;20490;-80
2020/12/15 03:19:51;;;;;;;4.05;2.80;;;8.70;93.60;;;;;;2046169;28;20127;-80
2020/12/15 03:20:52;;;;;;;3.83;2.33;;;8.70;93.60;;;;;;2053699;28;20521;-80
2020/12/15 03:21:53;;;;;;;4.60;3.10;;;8.70;93.60;;;;;;2048120;29;20051;-80
2020/12/15 03:22:54;;;;;;;4.53;2.95;;;8.70;93.60;;;;;;2041077;28;20036;-80
2020/12/15 03:23:54;;;;;;;3.75;2.58;;;8.70;93.60;;;;;;2046781;29;20028;-80
2020/12/15 03:24:55;;;;;;;5.13;2.97;;;8.70;93.60;;;;;;2053651;28;20066;-80
2020/12/15 03:25:55;;;;;;;3.90;2.60;;;8.70;93.60;;;;;;2053579;28;20023;-80
2020/12/15 03:26:56;;;;;;;4.65;2.80;;;8.70;93.60;;;;;;2054722;28;20479;-80
2020/12/15 03:27:57;;;;;;;3.90;2.40;;;8.70;93.60;;;;;;2037551;29;20036;-80
2020/12/15 03:28:57;;;;;;;5.15;2.50;;;8.70;93.60;;;;;;2043482;29;20039;-80
2020/12/15 03:29:58;;;;;;;3.80;2.58;;;8.70;93.60;;;;;;2057517;28;20126;-80
2020/12/15 03:30:59;;;;;;;3.15;2.20;;;8.70;93.60;;;;;;2057680;28;20035;-80
2020/12/15 03:31:59;;;;;;;4.53;2.58;;;8.70;93.60;;;;;;2047869;28;20118;-80
2020/12/15 03:33:01;;;;;;;4.60;2.42;;;8.70;93.60;;;;;;2048616;28;20510;-80
2020/12/15 03:34:01;;;;;;;4.72;2.60;;;8.70;93.60;;;;;;2056254;28;20058;-80
2020/12/15 03:35:02;;;;;;;5.20;2.60;;;8.70;93.70;;;;;;2048429;28;20222;-80
2020/12/15 03:36:03;;;;;;;5.05;2.80;;;8.70;93.70;;;;;;2048936;28;20039;-80
2020/12/15 03:37:03;;;;;;;4.13;2.40;;;8.70;93.70;;;;;;2051468;28;20046;-80
2020/12/15 03:38:04;;;;;;;4.43;2.35;;;8.70;93.70;;;;;;2052902;28;20043;-80
2020/12/15 03:39:08;;;;;;;4.60;2.53;;;8.70;93.70;;;;;;2050149;28;20054;-80
2020/12/15 03:40:08;;;;;;;3.72;2.45;;;8.70;93.70;;;;;;2053448;28;20023;-80
2020/12/15 03:41:10;;;;;;;4.38;2.72;;;8.70;93.70;;;;;;2053592;28;20030;-79
2020/12/15 03:42:10;;;;;;;3.58;2.47;;;8.70;93.70;;;;;;2056196;28;20223;-80
2020/12/15 03:43:12;;;;;;;3.95;2.40;;;8.80;94.00;;;;;;2054402;28;20127;-80
2020/12/15 03:44:12;;;;;;;3.67;2.50;;;8.70;93.70;;;;;;2052669;28;20038;-80
2020/12/15 03:45:13;;;;;;;3.75;2.20;;;8.80;93.70;;;;;;2055501;28;20027;-81
2020/12/15 03:46:14;;;;;;;3.78;2.42;;;8.80;93.70;;;;;;2048033;28;20110;-82
2020/12/15 03:47:14;;;;;;;4.15;2.40;;;8.80;93.70;;;;;;2048829;29;20025;-82
2020/12/15 03:48:15;;;;;;;4.00;2.63;;;8.80;93.70;;;;;;2040405;29;20071;-80
2020/12/15 03:49:16;;;;;;;3.58;2.47;;;8.80;93.70;;;;;;2040470;29;20035;-80
2020/12/15 03:50:16;;;;;;;4.32;2.58;;;8.80;93.70;;;;;;2046378;28;20394;-81
2020/12/15 03:51:17;;;;;;;4.40;2.60;;;8.80;93.70;;;;;;2051607;28;20062;-81
2020/12/15 03:52:18;;;;;;;4.38;2.60;;;8.80;93.70;;;;;;2051128;28;20023;-81
2020/12/15 03:53:18;;;;;;;3.80;2.50;;;8.80;93.70;;;;;;2054359;28;20392;-80
2020/12/15 03:54:19;;;;;;;4.32;2.30;;;8.80;93.70;;;;;;2040310;29;20126;-81
2020/12/15 03:55:21;;;;;;;3.78;2.40;;;8.80;94.00;;;;;;2032649;29;20123;-80
2020/12/15 03:56:23;;;;;;;5.13;2.78;;;8.80;93.70;;;;;;2037383;29;20125;-80
2020/12/15 03:57:24;;;;;;;4.30;2.38;;;8.80;93.70;;;;;;2052304;28;20502;-80
2020/12/15 03:58:24;;;;;;;5.35;2.50;;;8.90;93.70;;;;;;2050997;28;20054;-80
2020/12/15 03:59:25;;;;;;;4.57;2.50;;;8.80;93.70;;;;;;2039323;29;20028;-80
2020/12/15 04:00:25;;;;;;;4.47;2.88;;;8.80;93.70;;;;;;2031464;29;20491;-81
2020/12/15 04:01:26;;;;;;;5.22;2.60;;;8.80;93.70;;;;;;2031911;29;20028;-80
2020/12/15 04:02:27;;;;;;;4.72;2.63;;;8.80;93.70;;;;;;2040871;29;20510;-80
2020/12/15 04:03:27;;;;;;;4.20;2.38;;;8.90;93.70;;;;;;2056477;28;20389;-80
2020/12/15 04:04:28;;;;;;;3.47;2.30;;;8.80;93.70;;;;;;2046996;29;20035;-80
2020/12/15 04:05:29;;;;;;;6.32;2.60;;;8.80;93.70;;;;;;2048739;28;20038;-80
2020/12/15 04:06:29;;;;;;;6.15;2.67;;;8.90;93.70;;;;;;2039600;29;20130;-80
2020/12/15 04:07:30;;;;;;;4.45;2.63;;;8.90;93.70;;;;;;2040537;29;20038;-80
2020/12/15 04:08:30;;;;;;;3.83;2.42;;;8.90;93.70;;;;;;2056742;28;20528;-80
2020/12/15 04:09:31;;;;;;;4.22;2.53;;;8.90;93.70;;;;;;2054686;28;20047;-80
2020/12/15 04:10:32;;;;;;;3.15;2.17;;;8.90;93.70;;;;;;2054697;28;20050;-81
2020/12/15 04:11:32;;;;;;;3.47;2.30;;;8.90;93.70;;;;;;2052197;28;20504;-80
2020/12/15 04:12:33;;;;;;;4.15;2.28;;;8.90;93.70;;;;;;2043523;29;20036;-80
2020/12/15 04:13:34;;;;;;;3.17;2.10;;;8.90;93.70;;;;;;2041763;29;20107;-80
2020/12/15 04:14:34;;;;;;;4.68;2.78;;;8.90;93.70;;;;;;2049316;28;20569;-80
2020/12/15 04:15:35;;;;;;;4.15;2.30;;;8.90;93.70;;;;;;2053533;28;20493;-80
2020/12/15 04:16:35;;;;;;;4.60;2.70;;;8.90;93.80;;;;;;2054279;28;20463;-80
2020/12/15 04:17:36;;;;;;;4.05;2.53;;;8.90;93.80;;;;;;2046905;28;20031;-80
2020/12/15 04:18:37;;;;;;;3.25;2.08;;;8.90;93.80;;;;;;2046574;29;20131;-79
2020/12/15 04:19:37;;;;;;;4.85;2.33;;;8.90;93.80;;;;;;2056698;28;20031;-80
2020/12/15 04:20:38;;;;;;;4.93;2.35;;;8.90;93.80;;;;;;2056647;28;20571;-80
2020/12/15 04:21:39;;;;;;;5.15;2.78;;;8.90;93.80;;;;;;2052759;28;20113;-80
2020/12/15 04:22:39;;;;;;;4.82;2.53;;;8.90;93.80;;;;;;2056774;28;20397;-80
2020/12/15 04:23:40;;;;;;;4.40;2.58;;;8.90;93.80;;;;;;2055962;28;20540;-80
2020/12/15 04:24:41;;;;;;;4.05;2.40;;;8.90;93.80;;;;;;2049603;28;20058;-80
2020/12/15 04:25:54;;;;;;;4.15;2.33;;;8.90;93.80;;;;;;2048318;28;20055;-80
2020/12/15 04:26:55;;;;;;;3.83;2.28;;;8.90;93.80;;;;;;2051078;28;20118;-80
2020/12/15 04:27:55;;;;;;;3.92;2.13;;;8.90;93.80;;;;;;2056819;28;20539;-80
2020/12/15 04:28:56;;;;;;;3.55;2.42;;;8.90;93.80;;;;;;2054939;28;20125;-80
2020/12/15 04:29:57;;;;;;;3.30;2.35;;;8.90;93.80;;;;;;2052314;28;20027;-80
2020/12/15 04:30:57;;;;;;;3.33;2.33;;;8.90;93.80;;;;;;2048519;28;20038;-80
2020/12/15 04:31:58;;;;;;;4.30;2.47;;;8.90;93.80;;;;;;2047566;29;20019;-80
2020/12/15 04:32:59;;;;;;;4.15;2.55;;;8.90;93.80;;;;;;2049596;28;20027;-80
2020/12/15 04:33:59;;;;;;;5.03;2.80;;;8.90;93.80;;;;;;2052606;28;20027;-80
2020/12/15 04:35:00;;;;;;;4.00;2.30;;;8.90;93.80;;;;;;2040136;28;20040;-80
2020/12/15 04:36:01;;;;;;;3.95;2.40;;;8.90;93.80;;;;;;2048573;28;20027;-80
2020/12/15 04:37:01;;;;;;;6.03;2.80;;;9.00;93.80;;;;;;2054634;28;20042;-80
2020/12/15 04:38:02;;;;;;;5.40;2.45;;;8.90;93.70;;;;;;2055723;28;20475;-80
2020/12/15 04:39:04;;;;;;;5.10;2.53;;;8.90;93.70;;;;;;2055085;28;20044;-80
2020/12/15 04:40:05;;;;;;;3.88;2.60;;;9.00;93.80;;;;;;2052909;28;20057;-81
2020/12/15 04:41:06;;;;;;;4.05;2.47;;;8.90;93.80;;;;;;2037652;28;20578;-80
2020/12/15 04:42:06;;;;;;;3.72;2.55;;;8.90;93.80;;;;;;2046071;29;20031;-80
2020/12/15 04:43:10;;;;;;;4.20;2.72;;;8.90;93.80;;;;;;2056504;28;20121;-81
2020/12/15 04:44:10;;;;;;;4.40;2.63;;;9.00;93.80;;;;;;2048128;28;20023;-81
2020/12/15 04:45:11;;;;;;;5.05;2.90;;;9.00;93.80;;;;;;2047397;28;20445;-81
2020/12/15 04:46:16;;;;;;;4.60;2.72;;;9.00;93.80;;;;;;2047803;29;20039;-80
2020/12/15 04:47:16;;;;;;;3.83;2.70;;;9.00;93.80;;;;;;2041028;29;20446;-81
2020/12/15 04:48:23;;;;;;;4.82;2.97;;;8.90;93.70;;;;;;2040435;29;20058;-80
2020/12/15 04:49:30;;;;;;;3.78;2.50;;;9.00;93.80;;;;;;2052666;28;20027;-80
2020/12/15 04:50:33;;;;;;;4.30;2.80;;;9.00;93.80;;;;;;2055028;28;20026;-81
2020/12/15 04:51:51;;;;;;;4.68;2.50;;;9.00;93.80;;;;;;2054848;28;20042;-81
2020/12/15 04:52:58;;;;;;;3.15;2.20;;;9.00;93.80;;;;;;2055690;28;20058;-81
2020/12/15 04:54:02;;;;;;;4.38;2.55;;;8.90;93.70;;;;;;2050639;28;20062;-80
2020/12/15 04:55:03;;;;;;;3.92;2.35;;;9.00;93.80;;;;;;2048729;28;20034;-80
2020/12/15 04:56:26;;;;;;;4.85;2.45;;;9.00;93.70;;;;;;2047334;28;20524;-80
2020/12/15 04:57:28;;;;;;;3.35;2.20;;;9.00;93.80;;;;;;2055494;28;20030;-80
2020/12/15 04:58:32;;;;;;;3.50;2.28;;;9.00;93.70;;;;;;2052950;28;20074;-80
2020/12/15 04:59:34;;;;;;;4.13;2.17;;;9.00;93.70;;;;;;2050700;28;20054;-81
2020/12/15 05:00:35;;;;;;;3.88;2.33;;;9.00;93.70;;;;;;2053369;28;20035;-80
2020/12/15 05:01:39;;;;;;;3.40;2.30;;;9.00;93.70;;;;;;2047467;28;20125;-80
2020/12/15 05:02:41;;;;;;;4.13;2.70;;;9.00;93.80;;;;;;2052924;28;20031;-80
2020/12/15 05:03:44;;;;;;;4.05;2.60;;;9.00;93.80;;;;;;2053647;28;20493;-80
2020/12/15 05:04:45;;;;;;;4.10;2.30;;;9.00;93.70;;;;;;2055850;28;20030;-80
2020/12/15 05:05:49;;;;;;;4.32;2.40;;;9.00;93.80;;;;;;2050123;28;20035;-80
2020/12/15 05:06:53;;;;;;;4.18;2.50;;;9.00;93.80;;;;;;2053445;28;20043;-80
2020/12/15 05:07:59;;;;;;;4.45;2.40;;;9.00;93.80;;;;;;2047233;28;20046;-80
2020/12/15 05:09:03;;;;;;;4.72;2.80;;;9.00;93.80;;;;;;2048992;28;20056;-80
2020/12/15 05:10:04;;;;;;;4.05;2.35;;;9.00;93.70;;;;;;2055472;28;20390;-80
2020/12/15 05:11:04;;;;;;;3.75;2.45;;;9.00;93.70;;;;;;2037224;29;20042;-80
2020/12/15 05:12:06;;;;;;;3.97;2.63;;;9.00;93.70;;;;;;2031946;29;20470;-80
2020/12/15 05:13:06;;;;;;;4.05;2.20;;;9.00;93.70;;;;;;2040623;28;20518;-80
2020/12/15 05:14:07;;;;;;;5.05;2.85;;;9.00;93.70;;;;;;2042919;28;20024;-80
2020/12/15 05:15:09;;;;;;;4.88;2.55;;;9.10;93.80;;;;;;2047810;28;20039;-81
2020/12/15 05:16:10;;;;;;;5.15;2.60;;;9.00;93.70;;;;;;2055358;28;20172;-80
2020/12/15 05:17:21;;;;;;;4.10;2.55;;;9.00;93.70;;;;;;2055259;28;20081;-80
2020/12/15 05:18:21;;;;;;;3.50;2.30;;;9.00;93.70;;;;;;2048078;28;20035;-80
2020/12/15 05:19:22;;;;;;;3.95;2.70;;;9.00;93.70;;;;;;2045823;29;20039;-80
2020/12/15 05:20:27;;;;;;;3.65;2.40;;;9.00;93.70;;;;;;2052114;28;20145;-80
2020/12/15 05:21:27;;;;;;;3.30;2.22;;;9.10;93.70;;;;;;2055784;28;20037;-80
2020/12/15 05:22:41;;;;;;;3.63;2.40;;;9.10;93.70;;;;;;2051204;28;20126;-81
2020/12/15 05:23:51;;;;;;;5.05;2.70;;;9.10;93.70;;;;;;2051553;28;20026;-80